sensor_id;sensor_type;location;lat;lon;timestamp;temperature;humidity
25248;DHT22;13191;47.472;11.214;2023-01-20T00:02:05;-5.60;99.90
25248;DHT22;13191;47.472;11.214;2023-01-20T00:04:31;-5.60;99.90
25248;DHT22;13191;47.472;11.214;2023-01-20T00:06:56;-5.60;99.90
25248;DHT22;13191;47.472;11.214;2023-01-20T00:09:22;-5.60;99.90
25248;DHT22;13191;47.472;11.214;2023-01-20T00:11:47;-5.60;99.90
25248;DHT22;13191;47.472;11.214;2023-01-20T00:14:13;-5.60;99.90
25248;DHT22;13191;47.472;11.214;2023-01-20T00:16:38;-5.60;99.90
25248;DHT22;13191;47.472;11.214;2023-01-20T00:19:03;-5.70;99.90
25248;DHT22;13191;47.472;11.214;2023-01-20T00:21:29;-5.70;99.90
25248;DHT22;13191;47.472;11.214;2023-01-20T00:23:55;-5.70;99.90
25248;DHT22;13191;47.472;11.214;2023-01-20T00:26:21;-5.70;99.90
25248;DHT22;13191;47.472;11.214;2023-01-20T00:28:47;-5.70;99.90
25248;DHT22;13191;47.472;11.214;2023-01-20T00:31:14;-5.60;99.90
25248;DHT22;13191;47.472;11.214;2023-01-20T00:33:40;-5.60;99.90
25248;DHT22;13191;47.472;11.214;2023-01-20T00:36:06;-5.60;99.90
25248;DHT22;13191;47.472;11.214;2023-01-20T00:38:32;-5.60;99.90
25248;DHT22;13191;47.472;11.214;2023-01-20T00:40:57;-5.60;99.90
25248;DHT22;13191;47.472;11.214;2023-01-20T00:43:23;-5.70;99.90
25248;DHT22;13191;47.472;11.214;2023-01-20T00:45:48;-5.70;99.90
25248;DHT22;13191;47.472;11.214;2023-01-20T00:48:13;-5.70;99.90
25248;DHT22;13191;47.472;11.214;2023-01-20T00:50:39;-5.70;99.90
25248;DHT22;13191;47.472;11.214;2023-01-20T00:53:04;-5.70;99.90
25248;DHT22;13191;47.472;11.214;2023-01-20T00:55:30;-5.70;99.90
25248;DHT22;13191;47.472;11.214;2023-01-20T00:57:55;-5.70;99.90
25248;DHT22;13191;47.472;11.214;2023-01-20T01:00:21;-5.70;99.90
25248;DHT22;13191;47.472;11.214;2023-01-20T01:02:46;-5.70;99.90
25248;DHT22;13191;47.472;11.214;2023-01-20T01:05:12;-5.80;99.90
25248;DHT22;13191;47.472;11.214;2023-01-20T01:07:37;-5.70;99.90
25248;DHT22;13191;47.472;11.214;2023-01-20T01:10:03;-5.80;99.90
25248;DHT22;13191;47.472;11.214;2023-01-20T01:12:29;-5.80;99.90
25248;DHT22;13191;47.472;11.214;2023-01-20T01:14:54;-5.80;99.90
25248;DHT22;13191;47.472;11.214;2023-01-20T01:17:20;-5.80;99.90
25248;DHT22;13191;47.472;11.214;2023-01-20T01:19:51;-5.80;99.90
25248;DHT22;13191;47.472;11.214;2023-01-20T01:22:16;-5.80;99.90
25248;DHT22;13191;47.472;11.214;2023-01-20T01:24:43;-5.80;99.90
25248;DHT22;13191;47.472;11.214;2023-01-20T01:27:09;-5.80;99.90
25248;DHT22;13191;47.472;11.214;2023-01-20T01:29:34;-5.80;99.90
25248;DHT22;13191;47.472;11.214;2023-01-20T01:32:00;-5.80;99.90
25248;DHT22;13191;47.472;11.214;2023-01-20T01:34:25;-5.80;99.90
25248;DHT22;13191;47.472;11.214;2023-01-20T01:36:51;-5.90;99.90
25248;DHT22;13191;47.472;11.214;2023-01-20T01:39:16;-5.90;99.90
25248;DHT22;13191;47.472;11.214;2023-01-20T01:41:42;-5.90;99.90
25248;DHT22;13191;47.472;11.214;2023-01-20T01:44:08;-6.00;99.90
25248;DHT22;13191;47.472;11.214;2023-01-20T01:46:34;-6.20;99.90
25248;DHT22;13191;47.472;11.214;2023-01-20T01:49:02;-6.50;99.90
25248;DHT22;13191;47.472;11.214;2023-01-20T01:51:30;-6.50;99.90
25248;DHT22;13191;47.472;11.214;2023-01-20T01:53:59;-6.50;99.90
25248;DHT22;13191;47.472;11.214;2023-01-20T01:56:26;-6.40;99.90
25248;DHT22;13191;47.472;11.214;2023-01-20T01:58:54;-6.40;99.90
25248;DHT22;13191;47.472;11.214;2023-01-20T02:01:20;-6.30;99.90
25248;DHT22;13191;47.472;11.214;2023-01-20T02:06:14;-6.40;99.90
25248;DHT22;13191;47.472;11.214;2023-01-20T02:08:40;-6.40;99.90
25248;DHT22;13191;47.472;11.214;2023-01-20T02:11:06;-6.40;99.90
25248;DHT22;13191;47.472;11.214;2023-01-20T02:13:31;-6.40;99.90
25248;DHT22;13191;47.472;11.214;2023-01-20T02:16:04;-6.40;99.90
25248;DHT22;13191;47.472;11.214;2023-01-20T02:24:00;-6.50;99.90
25248;DHT22;13191;47.472;11.214;2023-01-20T02:31:43;-6.50;99.90
25248;DHT22;13191;47.472;11.214;2023-01-20T02:39:36;-6.40;99.90
25248;DHT22;13191;47.472;11.214;2023-01-20T02:42:12;-6.30;99.90
25248;DHT22;13191;47.472;11.214;2023-01-20T02:44:44;-6.30;99.90
25248;DHT22;13191;47.472;11.214;2023-01-20T02:47:16;-6.20;99.90
25248;DHT22;13191;47.472;11.214;2023-01-20T02:49:46;-6.20;99.90
25248;DHT22;13191;47.472;11.214;2023-01-20T02:52:25;-6.10;99.90
25248;DHT22;13191;47.472;11.214;2023-01-20T02:54:52;-6.00;99.90
25248;DHT22;13191;47.472;11.214;2023-01-20T02:57:20;-6.00;99.90
25248;DHT22;13191;47.472;11.214;2023-01-20T02:59:48;-5.90;99.90
25248;DHT22;13191;47.472;11.214;2023-01-20T03:02:16;-5.90;99.90
25248;DHT22;13191;47.472;11.214;2023-01-20T03:04:47;-5.90;99.90
25248;DHT22;13191;47.472;11.214;2023-01-20T03:07:14;-5.80;99.90
25248;DHT22;13191;47.472;11.214;2023-01-20T03:09:42;-5.90;99.90
25248;DHT22;13191;47.472;11.214;2023-01-20T03:14:47;-5.80;99.90
25248;DHT22;13191;47.472;11.214;2023-01-20T03:17:12;-5.70;99.90
25248;DHT22;13191;47.472;11.214;2023-01-20T03:19:38;-5.70;99.90
25248;DHT22;13191;47.472;11.214;2023-01-20T03:22:04;-5.70;99.90
25248;DHT22;13191;47.472;11.214;2023-01-20T03:24:29;-5.60;99.90
25248;DHT22;13191;47.472;11.214;2023-01-20T03:26:55;-5.60;99.90
25248;DHT22;13191;47.472;11.214;2023-01-20T03:29:21;-5.60;99.90
25248;DHT22;13191;47.472;11.214;2023-01-20T03:31:50;-5.60;99.90
25248;DHT22;13191;47.472;11.214;2023-01-20T03:34:18;-5.50;99.90
25248;DHT22;13191;47.472;11.214;2023-01-20T03:36:44;-5.40;99.90
25248;DHT22;13191;47.472;11.214;2023-01-20T03:39:10;-5.50;99.90
25248;DHT22;13191;47.472;11.214;2023-01-20T03:44:08;-5.40;99.90
25248;DHT22;13191;47.472;11.214;2023-01-20T03:47:19;-5.40;99.90
25248;DHT22;13191;47.472;11.214;2023-01-20T03:51:54;-5.40;99.90
25248;DHT22;13191;47.472;11.214;2023-01-20T03:54:21;-5.30;99.90
25248;DHT22;13191;47.472;11.214;2023-01-20T03:56:58;-5.30;99.90
25248;DHT22;13191;47.472;11.214;2023-01-20T03:59:31;-5.30;99.90
25248;DHT22;13191;47.472;11.214;2023-01-20T04:02:00;-5.20;99.90
25248;DHT22;13191;47.472;11.214;2023-01-20T04:04:26;-5.20;99.90
25248;DHT22;13191;47.472;11.214;2023-01-20T04:06:53;-5.20;99.90
25248;DHT22;13191;47.472;11.214;2023-01-20T04:09:23;-5.20;99.90
25248;DHT22;13191;47.472;11.214;2023-01-20T04:11:50;-5.10;99.90
25248;DHT22;13191;47.472;11.214;2023-01-20T04:14:16;-5.10;99.90
25248;DHT22;13191;47.472;11.214;2023-01-20T04:16:41;-5.10;99.90
25248;DHT22;13191;47.472;11.214;2023-01-20T04:19:07;-5.00;99.90
25248;DHT22;13191;47.472;11.214;2023-01-20T04:21:34;-4.90;99.90
25248;DHT22;13191;47.472;11.214;2023-01-20T04:24:02;-4.90;99.90
25248;DHT22;13191;47.472;11.214;2023-01-20T04:26:29;-4.80;99.90
25248;DHT22;13191;47.472;11.214;2023-01-20T04:28:54;-4.80;99.90
25248;DHT22;13191;47.472;11.214;2023-01-20T04:31:20;-4.80;99.90
25248;DHT22;13191;47.472;11.214;2023-01-20T04:33:45;-4.80;99.90
25248;DHT22;13191;47.472;11.214;2023-01-20T04:36:11;-4.90;99.90
25248;DHT22;13191;47.472;11.214;2023-01-20T04:38:36;-4.80;99.90
25248;DHT22;13191;47.472;11.214;2023-01-20T04:41:02;-4.80;99.90
25248;DHT22;13191;47.472;11.214;2023-01-20T04:43:27;-4.70;99.90
25248;DHT22;13191;47.472;11.214;2023-01-20T04:45:53;-4.70;99.90
25248;DHT22;13191;47.472;11.214;2023-01-20T04:48:18;-4.80;99.90
25248;DHT22;13191;47.472;11.214;2023-01-20T04:50:44;-4.80;99.90
25248;DHT22;13191;47.472;11.214;2023-01-20T04:53:10;-4.80;99.90
25248;DHT22;13191;47.472;11.214;2023-01-20T04:55:35;-4.80;99.90
25248;DHT22;13191;47.472;11.214;2023-01-20T04:58:01;-4.70;99.90
25248;DHT22;13191;47.472;11.214;2023-01-20T05:00:26;-4.70;99.90
25248;DHT22;13191;47.472;11.214;2023-01-20T05:02:55;-4.70;99.90
25248;DHT22;13191;47.472;11.214;2023-01-20T05:05:20;-4.70;99.90
25248;DHT22;13191;47.472;11.214;2023-01-20T05:07:45;-4.70;99.90
25248;DHT22;13191;47.472;11.214;2023-01-20T05:10:11;-4.70;99.90
25248;DHT22;13191;47.472;11.214;2023-01-20T05:12:36;-4.80;99.90
25248;DHT22;13191;47.472;11.214;2023-01-20T05:15:02;-4.70;99.90
25248;DHT22;13191;47.472;11.214;2023-01-20T05:17:27;-4.70;99.90
25248;DHT22;13191;47.472;11.214;2023-01-20T05:19:53;-4.70;99.90
25248;DHT22;13191;47.472;11.214;2023-01-20T05:22:18;-4.70;99.90
25248;DHT22;13191;47.472;11.214;2023-01-20T05:24:44;-4.60;99.90
25248;DHT22;13191;47.472;11.214;2023-01-20T05:27:09;-4.50;99.90
25248;DHT22;13191;47.472;11.214;2023-01-20T05:29:35;-4.50;99.90
25248;DHT22;13191;47.472;11.214;2023-01-20T05:32:00;-4.50;99.90
25248;DHT22;13191;47.472;11.214;2023-01-20T05:34:25;-4.50;99.90
25248;DHT22;13191;47.472;11.214;2023-01-20T05:36:51;-4.50;99.90
25248;DHT22;13191;47.472;11.214;2023-01-20T05:39:17;-4.40;99.90
25248;DHT22;13191;47.472;11.214;2023-01-20T05:41:43;-4.40;99.90
25248;DHT22;13191;47.472;11.214;2023-01-20T05:44:11;-4.30;99.90
25248;DHT22;13191;47.472;11.214;2023-01-20T05:46:36;-4.30;99.90
25248;DHT22;13191;47.472;11.214;2023-01-20T05:49:02;-4.30;99.90
25248;DHT22;13191;47.472;11.214;2023-01-20T05:51:27;-4.20;99.90
25248;DHT22;13191;47.472;11.214;2023-01-20T05:53:53;-4.30;99.90
25248;DHT22;13191;47.472;11.214;2023-01-20T05:56:18;-4.30;99.90
25248;DHT22;13191;47.472;11.214;2023-01-20T05:58:43;-4.30;99.90
25248;DHT22;13191;47.472;11.214;2023-01-20T06:01:10;-4.40;99.90
25248;DHT22;13191;47.472;11.214;2023-01-20T06:03:36;-4.40;99.90
25248;DHT22;13191;47.472;11.214;2023-01-20T06:06:18;-4.30;99.90
25248;DHT22;13191;47.472;11.214;2023-01-20T06:08:43;-4.30;99.90
25248;DHT22;13191;47.472;11.214;2023-01-20T06:11:10;-4.30;99.90
25248;DHT22;13191;47.472;11.214;2023-01-20T06:13:35;-4.30;99.90
25248;DHT22;13191;47.472;11.214;2023-01-20T06:16:01;-4.20;99.90
25248;DHT22;13191;47.472;11.214;2023-01-20T06:18:26;-4.20;99.90
25248;DHT22;13191;47.472;11.214;2023-01-20T06:20:56;-4.30;99.90
25248;DHT22;13191;47.472;11.214;2023-01-20T06:23:23;-4.40;99.90
25248;DHT22;13191;47.472;11.214;2023-01-20T06:25:48;-4.40;99.90
25248;DHT22;13191;47.472;11.214;2023-01-20T06:28:14;-4.30;99.90
25248;DHT22;13191;47.472;11.214;2023-01-20T06:30:39;-4.30;99.90
25248;DHT22;13191;47.472;11.214;2023-01-20T06:33:07;-4.30;99.90
25248;DHT22;13191;47.472;11.214;2023-01-20T06:35:35;-4.30;99.90
25248;DHT22;13191;47.472;11.214;2023-01-20T06:38:00;-4.20;99.90
25248;DHT22;13191;47.472;11.214;2023-01-20T06:40:26;-4.20;99.90
25248;DHT22;13191;47.472;11.214;2023-01-20T06:42:51;-4.20;99.90
25248;DHT22;13191;47.472;11.214;2023-01-20T06:45:17;-4.10;99.90
25248;DHT22;13191;47.472;11.214;2023-01-20T06:47:43;-4.00;99.90
25248;DHT22;13191;47.472;11.214;2023-01-20T06:50:12;-4.00;99.90
25248;DHT22;13191;47.472;11.214;2023-01-20T06:52:37;-4.00;99.90
25248;DHT22;13191;47.472;11.214;2023-01-20T06:55:03;-4.00;99.90
25248;DHT22;13191;47.472;11.214;2023-01-20T06:57:28;-4.00;99.90
25248;DHT22;13191;47.472;11.214;2023-01-20T06:59:53;-3.90;99.90
25248;DHT22;13191;47.472;11.214;2023-01-20T07:02:19;-3.90;99.90
25248;DHT22;13191;47.472;11.214;2023-01-20T07:04:45;-3.90;99.90
25248;DHT22;13191;47.472;11.214;2023-01-20T07:07:11;-3.90;99.90
25248;DHT22;13191;47.472;11.214;2023-01-20T07:09:41;-4.00;99.90
25248;DHT22;13191;47.472;11.214;2023-01-20T07:12:06;-4.00;99.90
25248;DHT22;13191;47.472;11.214;2023-01-20T07:14:32;-3.90;99.90
25248;DHT22;13191;47.472;11.214;2023-01-20T07:16:57;-3.90;99.90
25248;DHT22;13191;47.472;11.214;2023-01-20T07:19:23;-4.00;99.90
25248;DHT22;13191;47.472;11.214;2023-01-20T07:21:48;-3.90;99.90
25248;DHT22;13191;47.472;11.214;2023-01-20T07:24:13;-3.90;99.90
25248;DHT22;13191;47.472;11.214;2023-01-20T07:26:39;-3.90;99.90
25248;DHT22;13191;47.472;11.214;2023-01-20T07:29:04;-3.90;99.90
25248;DHT22;13191;47.472;11.214;2023-01-20T07:31:30;-4.00;99.90
25248;DHT22;13191;47.472;11.214;2023-01-20T07:33:55;-4.00;99.90
25248;DHT22;13191;47.472;11.214;2023-01-20T07:36:21;-4.10;99.90
25248;DHT22;13191;47.472;11.214;2023-01-20T07:38:47;-4.10;99.90
25248;DHT22;13191;47.472;11.214;2023-01-20T07:41:13;-4.10;99.90
25248;DHT22;13191;47.472;11.214;2023-01-20T07:43:42;-4.00;99.90
25248;DHT22;13191;47.472;11.214;2023-01-20T07:46:08;-4.00;99.90
25248;DHT22;13191;47.472;11.214;2023-01-20T07:48:34;-3.90;99.90
25248;DHT22;13191;47.472;11.214;2023-01-20T07:51:00;-3.80;99.90
25248;DHT22;13191;47.472;11.214;2023-01-20T07:53:30;-3.80;99.90
25248;DHT22;13191;47.472;11.214;2023-01-20T07:55:59;-3.70;99.90
25248;DHT22;13191;47.472;11.214;2023-01-20T07:58:24;-3.70;99.90
25248;DHT22;13191;47.472;11.214;2023-01-20T08:00:50;-3.60;99.90
25248;DHT22;13191;47.472;11.214;2023-01-20T08:03:15;-3.60;99.90
25248;DHT22;13191;47.472;11.214;2023-01-20T08:05:41;-3.60;99.90
25248;DHT22;13191;47.472;11.214;2023-01-20T08:08:06;-3.60;99.90
25248;DHT22;13191;47.472;11.214;2023-01-20T08:10:32;-3.50;99.90
25248;DHT22;13191;47.472;11.214;2023-01-20T08:12:58;-3.50;99.90
25248;DHT22;13191;47.472;11.214;2023-01-20T08:15:23;-3.40;99.90
25248;DHT22;13191;47.472;11.214;2023-01-20T08:17:55;-3.40;99.90
25248;DHT22;13191;47.472;11.214;2023-01-20T08:20:21;-3.30;99.90
25248;DHT22;13191;47.472;11.214;2023-01-20T08:22:47;-3.20;99.90
25248;DHT22;13191;47.472;11.214;2023-01-20T08:25:12;-3.20;99.90
25248;DHT22;13191;47.472;11.214;2023-01-20T08:27:38;-3.20;99.90
25248;DHT22;13191;47.472;11.214;2023-01-20T08:30:03;-3.10;99.90
25248;DHT22;13191;47.472;11.214;2023-01-20T08:32:29;-3.20;99.90
25248;DHT22;13191;47.472;11.214;2023-01-20T08:34:54;-3.10;99.90
25248;DHT22;13191;47.472;11.214;2023-01-20T08:37:20;-3.10;99.90
25248;DHT22;13191;47.472;11.214;2023-01-20T08:39:45;-3.10;99.90
25248;DHT22;13191;47.472;11.214;2023-01-20T08:42:11;-3.00;99.90
25248;DHT22;13191;47.472;11.214;2023-01-20T08:44:36;-3.00;99.90
25248;DHT22;13191;47.472;11.214;2023-01-20T08:47:02;-3.00;99.90
25248;DHT22;13191;47.472;11.214;2023-01-20T08:49:27;-2.90;99.90
25248;DHT22;13191;47.472;11.214;2023-01-20T08:51:54;-2.90;99.90
25248;DHT22;13191;47.472;11.214;2023-01-20T08:54:20;-2.90;99.90
25248;DHT22;13191;47.472;11.214;2023-01-20T08:56:53;-2.80;99.90
25248;DHT22;13191;47.472;11.214;2023-01-20T08:59:18;-2.80;99.90
25248;DHT22;13191;47.472;11.214;2023-01-20T09:01:44;-2.70;99.90
25248;DHT22;13191;47.472;11.214;2023-01-20T09:04:10;-2.70;99.90
25248;DHT22;13191;47.472;11.214;2023-01-20T09:06:40;-2.70;99.90
25248;DHT22;13191;47.472;11.214;2023-01-20T09:09:05;-2.60;99.90
25248;DHT22;13191;47.472;11.214;2023-01-20T09:11:31;-2.50;99.90
25248;DHT22;13191;47.472;11.214;2023-01-20T09:13:56;-2.50;99.90
25248;DHT22;13191;47.472;11.214;2023-01-20T09:16:22;-2.40;99.90
25248;DHT22;13191;47.472;11.214;2023-01-20T09:18:47;-2.40;99.90
25248;DHT22;13191;47.472;11.214;2023-01-20T09:21:13;-2.40;99.90
25248;DHT22;13191;47.472;11.214;2023-01-20T09:23:38;-2.30;99.90
25248;DHT22;13191;47.472;11.214;2023-01-20T09:26:05;-2.30;99.90
25248;DHT22;13191;47.472;11.214;2023-01-20T09:28:31;-2.30;99.90
25248;DHT22;13191;47.472;11.214;2023-01-20T09:31:04;-2.30;99.90
25248;DHT22;13191;47.472;11.214;2023-01-20T09:33:30;-2.20;99.90
25248;DHT22;13191;47.472;11.214;2023-01-20T09:35:56;-2.20;99.90
25248;DHT22;13191;47.472;11.214;2023-01-20T09:38:22;-2.10;99.90
25248;DHT22;13191;47.472;11.214;2023-01-20T09:41:15;-2.00;99.90
25248;DHT22;13191;47.472;11.214;2023-01-20T09:46:53;-2.00;99.90
25248;DHT22;13191;47.472;11.214;2023-01-20T09:52:36;-1.80;99.90
25248;DHT22;13191;47.472;11.214;2023-01-20T09:58:16;-1.80;99.90
25248;DHT22;13191;47.472;11.214;2023-01-20T10:00:48;-1.70;99.90
25248;DHT22;13191;47.472;11.214;2023-01-20T10:03:27;-1.70;99.90
25248;DHT22;13191;47.472;11.214;2023-01-20T10:05:55;-1.60;99.90
25248;DHT22;13191;47.472;11.214;2023-01-20T10:08:25;-1.50;99.90
25248;DHT22;13191;47.472;11.214;2023-01-20T10:11:09;-1.40;99.90
25248;DHT22;13191;47.472;11.214;2023-01-20T10:13:47;-1.40;99.90
25248;DHT22;13191;47.472;11.214;2023-01-20T10:16:19;-1.30;99.90
25248;DHT22;13191;47.472;11.214;2023-01-20T10:18:50;-1.20;99.90
25248;DHT22;13191;47.472;11.214;2023-01-20T10:23:54;-1.10;99.90
25248;DHT22;13191;47.472;11.214;2023-01-20T10:26:29;-1.10;99.90
25248;DHT22;13191;47.472;11.214;2023-01-20T10:29:03;-1.00;99.90
25248;DHT22;13191;47.472;11.214;2023-01-20T10:31:34;-1.00;99.90
25248;DHT22;13191;47.472;11.214;2023-01-20T10:34:07;-1.00;99.90
25248;DHT22;13191;47.472;11.214;2023-01-20T10:36:35;-1.00;99.90
25248;DHT22;13191;47.472;11.214;2023-01-20T10:39:10;-1.00;99.90
25248;DHT22;13191;47.472;11.214;2023-01-20T10:41:38;-0.90;99.90
25248;DHT22;13191;47.472;11.214;2023-01-20T10:44:10;-0.90;99.90
25248;DHT22;13191;47.472;11.214;2023-01-20T10:54:40;-0.80;99.90
25248;DHT22;13191;47.472;11.214;2023-01-20T10:57:11;-0.80;99.90
25248;DHT22;13191;47.472;11.214;2023-01-20T10:59:44;-0.70;99.90
25248;DHT22;13191;47.472;11.214;2023-01-20T11:02:15;-0.70;99.90
25248;DHT22;13191;47.472;11.214;2023-01-20T11:04:41;-0.70;99.90
25248;DHT22;13191;47.472;11.214;2023-01-20T11:07:08;-0.70;99.90
25248;DHT22;13191;47.472;11.214;2023-01-20T11:09:37;-0.70;99.90
25248;DHT22;13191;47.472;11.214;2023-01-20T11:12:03;-0.70;99.90
25248;DHT22;13191;47.472;11.214;2023-01-20T11:14:30;-0.70;99.90
25248;DHT22;13191;47.472;11.214;2023-01-20T11:17:00;-0.60;99.90
25248;DHT22;13191;47.472;11.214;2023-01-20T11:19:43;-0.60;99.90
25248;DHT22;13191;47.472;11.214;2023-01-20T11:22:09;-0.60;99.90
25248;DHT22;13191;47.472;11.214;2023-01-20T11:27:02;-0.70;99.90
25248;DHT22;13191;47.472;11.214;2023-01-20T11:29:27;-0.60;99.90
25248;DHT22;13191;47.472;11.214;2023-01-20T11:31:54;-0.50;99.90
25248;DHT22;13191;47.472;11.214;2023-01-20T11:36:50;-0.50;99.90
25248;DHT22;13191;47.472;11.214;2023-01-20T11:39:35;-0.50;99.90
25248;DHT22;13191;47.472;11.214;2023-01-20T11:42:13;-0.40;99.90
25248;DHT22;13191;47.472;11.214;2023-01-20T11:44:41;-0.40;99.90
25248;DHT22;13191;47.472;11.214;2023-01-20T11:47:23;-0.40;99.90
25248;DHT22;13191;47.472;11.214;2023-01-20T11:55:08;-0.40;99.90
25248;DHT22;13191;47.472;11.214;2023-01-20T11:57:34;-0.30;99.90
25248;DHT22;13191;47.472;11.214;2023-01-20T12:00:00;-0.30;99.90
25248;DHT22;13191;47.472;11.214;2023-01-20T12:02:26;-0.30;99.90
25248;DHT22;13191;47.472;11.214;2023-01-20T12:07:22;-0.20;99.90
25248;DHT22;13191;47.472;11.214;2023-01-20T12:09:50;-0.10;99.90
25248;DHT22;13191;47.472;11.214;2023-01-20T12:12:26;-0.10;99.90
25248;DHT22;13191;47.472;11.214;2023-01-20T12:20:04;0.00;99.90
25248;DHT22;13191;47.472;11.214;2023-01-20T12:25:18;0.00;99.90
25248;DHT22;13191;47.472;11.214;2023-01-20T12:30:35;0.00;99.90
25248;DHT22;13191;47.472;11.214;2023-01-20T12:33:01;0.00;99.90
25248;DHT22;13191;47.472;11.214;2023-01-20T12:35:28;0.10;99.90
25248;DHT22;13191;47.472;11.214;2023-01-20T12:37:56;0.10;99.90
25248;DHT22;13191;47.472;11.214;2023-01-20T12:40:27;0.10;99.90
25248;DHT22;13191;47.472;11.214;2023-01-20T12:48:04;0.10;99.90
25248;DHT22;13191;47.472;11.214;2023-01-20T12:50:43;0.00;99.90
25248;DHT22;13191;47.472;11.214;2023-01-20T12:55:51;-0.10;99.90
25248;DHT22;13191;47.472;11.214;2023-01-20T13:01:26;-0.20;99.90
25248;DHT22;13191;47.472;11.214;2023-01-20T13:06:31;-0.40;99.90
25248;DHT22;13191;47.472;11.214;2023-01-20T13:09:10;-0.50;99.90
25248;DHT22;13191;47.472;11.214;2023-01-20T13:16:58;-0.80;99.90
25248;DHT22;13191;47.472;11.214;2023-01-20T13:19:30;-0.90;99.90
25248;DHT22;13191;47.472;11.214;2023-01-20T13:21:58;-0.80;99.90
25248;DHT22;13191;47.472;11.214;2023-01-20T13:24:26;-0.80;99.90
25248;DHT22;13191;47.472;11.214;2023-01-20T13:26:55;-0.70;99.90
25248;DHT22;13191;47.472;11.214;2023-01-20T13:32:48;-0.60;99.90
25248;DHT22;13191;47.472;11.214;2023-01-20T13:34:54;-0.60;99.90
25248;DHT22;13191;47.472;11.214;2023-01-20T13:37:24;-0.60;99.90
25248;DHT22;13191;47.472;11.214;2023-01-20T13:39:50;-0.60;99.90
25248;DHT22;13191;47.472;11.214;2023-01-20T13:45:14;-0.50;99.90
25248;DHT22;13191;47.472;11.214;2023-01-20T13:50:34;-0.60;99.90
25248;DHT22;13191;47.472;11.214;2023-01-20T13:53:00;-0.60;99.90
25248;DHT22;13191;47.472;11.214;2023-01-20T13:57:51;-0.70;99.90
25248;DHT22;13191;47.472;11.214;2023-01-20T14:00:17;-0.70;99.90
25248;DHT22;13191;47.472;11.214;2023-01-20T14:02:44;-0.70;99.90
25248;DHT22;13191;47.472;11.214;2023-01-20T14:05:26;-0.60;99.90
25248;DHT22;13191;47.472;11.214;2023-01-20T14:07:52;-0.60;99.90
25248;DHT22;13191;47.472;11.214;2023-01-20T14:10:18;-0.50;99.90
25248;DHT22;13191;47.472;11.214;2023-01-20T14:12:44;-0.50;99.90
25248;DHT22;13191;47.472;11.214;2023-01-20T14:15:29;-0.50;99.90
25248;DHT22;13191;47.472;11.214;2023-01-20T14:17:56;-0.40;99.90
25248;DHT22;13191;47.472;11.214;2023-01-20T14:20:22;-0.40;99.90
25248;DHT22;13191;47.472;11.214;2023-01-20T14:22:49;-0.40;99.90
25248;DHT22;13191;47.472;11.214;2023-01-20T14:25:19;-0.40;99.90
25248;DHT22;13191;47.472;11.214;2023-01-20T14:27:45;-0.40;99.90
25248;DHT22;13191;47.472;11.214;2023-01-20T14:30:22;-0.30;99.90
25248;DHT22;13191;47.472;11.214;2023-01-20T14:32:48;-0.30;99.90
25248;DHT22;13191;47.472;11.214;2023-01-20T14:35:15;-0.30;99.90
25248;DHT22;13191;47.472;11.214;2023-01-20T14:37:41;-0.30;99.90
25248;DHT22;13191;47.472;11.214;2023-01-20T14:42:32;-0.30;99.90
25248;DHT22;13191;47.472;11.214;2023-01-20T14:44:58;-0.20;99.90
25248;DHT22;13191;47.472;11.214;2023-01-20T14:47:24;-0.20;99.90
25248;DHT22;13191;47.472;11.214;2023-01-20T14:49:50;-0.20;99.90
25248;DHT22;13191;47.472;11.214;2023-01-20T14:52:21;-0.30;99.90
25248;DHT22;13191;47.472;11.214;2023-01-20T14:54:49;-0.40;99.90
25248;DHT22;13191;47.472;11.214;2023-01-20T14:57:30;-0.50;99.90
25248;DHT22;13191;47.472;11.214;2023-01-20T15:02:34;-0.60;99.90
25248;DHT22;13191;47.472;11.214;2023-01-20T15:05:01;-0.50;99.90
25248;DHT22;13191;47.472;11.214;2023-01-20T15:07:26;-0.60;99.90
25248;DHT22;13191;47.472;11.214;2023-01-20T15:09:58;-0.60;99.90
25248;DHT22;13191;47.472;11.214;2023-01-20T15:12:32;-0.70;99.90
25248;DHT22;13191;47.472;11.214;2023-01-20T15:15:08;-0.70;99.90
25248;DHT22;13191;47.472;11.214;2023-01-20T15:17:36;-0.80;99.90
25248;DHT22;13191;47.472;11.214;2023-01-20T15:20:01;-0.90;99.90
25248;DHT22;13191;47.472;11.214;2023-01-20T15:22:26;-0.90;99.90
25248;DHT22;13191;47.472;11.214;2023-01-20T15:24:55;-0.90;99.90
25248;DHT22;13191;47.472;11.214;2023-01-20T15:27:22;-0.90;99.90
25248;DHT22;13191;47.472;11.214;2023-01-20T15:30:01;-0.90;99.90
25248;DHT22;13191;47.472;11.214;2023-01-20T15:32:28;-0.90;99.90
25248;DHT22;13191;47.472;11.214;2023-01-20T15:34:53;-1.00;99.90
25248;DHT22;13191;47.472;11.214;2023-01-20T15:37:19;-1.00;99.90
25248;DHT22;13191;47.472;11.214;2023-01-20T15:39:44;-1.00;99.90
25248;DHT22;13191;47.472;11.214;2023-01-20T15:42:10;-1.10;99.90
25248;DHT22;13191;47.472;11.214;2023-01-20T15:44:35;-1.10;99.90
25248;DHT22;13191;47.472;11.214;2023-01-20T15:47:01;-1.10;99.90
25248;DHT22;13191;47.472;11.214;2023-01-20T15:49:26;-1.00;99.90
25248;DHT22;13191;47.472;11.214;2023-01-20T15:51:52;-1.00;99.90
25248;DHT22;13191;47.472;11.214;2023-01-20T15:54:17;-1.00;99.90
25248;DHT22;13191;47.472;11.214;2023-01-20T15:56:43;-1.00;99.90
25248;DHT22;13191;47.472;11.214;2023-01-20T15:59:15;-0.90;99.90
25248;DHT22;13191;47.472;11.214;2023-01-20T16:01:41;-1.00;99.90
25248;DHT22;13191;47.472;11.214;2023-01-20T16:04:08;-1.00;99.90
25248;DHT22;13191;47.472;11.214;2023-01-20T16:06:33;-0.90;99.90
25248;DHT22;13191;47.472;11.214;2023-01-20T16:08:59;-1.00;99.90
25248;DHT22;13191;47.472;11.214;2023-01-20T16:11:25;-1.00;99.90
25248;DHT22;13191;47.472;11.214;2023-01-20T16:13:50;-1.00;99.90
25248;DHT22;13191;47.472;11.214;2023-01-20T16:16:16;-1.00;99.90
25248;DHT22;13191;47.472;11.214;2023-01-20T16:18:43;-1.00;99.90
25248;DHT22;13191;47.472;11.214;2023-01-20T16:21:09;-1.00;99.90
25248;DHT22;13191;47.472;11.214;2023-01-20T16:23:35;-1.00;99.90
25248;DHT22;13191;47.472;11.214;2023-01-20T16:26:00;-1.00;99.90
25248;DHT22;13191;47.472;11.214;2023-01-20T16:28:26;-1.20;99.90
25248;DHT22;13191;47.472;11.214;2023-01-20T16:30:52;-1.20;99.90
25248;DHT22;13191;47.472;11.214;2023-01-20T16:33:22;-1.10;99.90
25248;DHT22;13191;47.472;11.214;2023-01-20T16:35:51;-1.10;99.90
25248;DHT22;13191;47.472;11.214;2023-01-20T16:38:18;-1.10;99.90
25248;DHT22;13191;47.472;11.214;2023-01-20T16:40:51;-1.10;99.90
25248;DHT22;13191;47.472;11.214;2023-01-20T16:43:17;-1.10;99.90
25248;DHT22;13191;47.472;11.214;2023-01-20T16:45:43;-1.10;99.90
25248;DHT22;13191;47.472;11.214;2023-01-20T16:48:11;-1.10;99.90
25248;DHT22;13191;47.472;11.214;2023-01-20T16:50:37;-1.10;99.90
25248;DHT22;13191;47.472;11.214;2023-01-20T16:53:02;-1.20;99.90
25248;DHT22;13191;47.472;11.214;2023-01-20T16:55:28;-1.20;99.90
25248;DHT22;13191;47.472;11.214;2023-01-20T16:57:53;-1.10;99.90
25248;DHT22;13191;47.472;11.214;2023-01-20T17:00:19;-1.10;99.90
25248;DHT22;13191;47.472;11.214;2023-01-20T17:02:49;-1.10;99.90
25248;DHT22;13191;47.472;11.214;2023-01-20T17:05:15;-1.10;99.90